createdAt,value
2022-07-29T00:01:08.844Z,100198.91
2022-07-29T00:03:47.213Z,100203.94
2022-07-29T00:06:15.194Z,100200.13
2022-07-29T00:08:42.160Z,100198.31
2022-07-29T00:11:09.080Z,100200.28
2022-07-29T00:13:36.023Z,100184.97
2022-07-29T00:18:33.080Z,100189.03
2022-07-29T00:21:00.389Z,100189.50
2022-07-29T00:23:27.398Z,100187.31
2022-07-29T00:25:54.412Z,100198.91
2022-07-29T00:28:21.366Z,100197.94
2022-07-29T00:30:48.413Z,100190.94
2022-07-29T00:33:15.390Z,100194.75
2022-07-29T00:35:45.001Z,100190.22
2022-07-29T00:38:17.666Z,100184.97
2022-07-29T00:40:45.798Z,100187.44
2022-07-29T00:43:14.884Z,100182.44
2022-07-29T00:45:45.326Z,100180.75
2022-07-29T00:48:12.398Z,100179.59
2022-07-29T00:50:39.936Z,100173.28
2022-07-29T00:53:08.869Z,100169.25
2022-07-29T00:55:36.567Z,100170.06
2022-07-29T00:58:04.162Z,100167.03
2022-07-29T01:00:31.801Z,100162.16
2022-07-29T01:02:59.069Z,100164.97
2022-07-29T01:05:51.115Z,100173.03
2022-07-29T01:08:17.026Z,100167.03
2022-07-29T01:10:46.630Z,100167.66
2022-07-29T01:13:15.673Z,100169.59
2022-07-29T01:15:49.307Z,100167.53
2022-07-29T01:18:31.255Z,100160.72
2022-07-29T01:21:43.179Z,100168.03
2022-07-29T01:24:45.345Z,100167.63
2022-07-29T01:28:08.628Z,100169.41
2022-07-29T01:30:43.008Z,100169.38
2022-07-29T01:33:36.256Z,100159.00
2022-07-29T01:36:13.030Z,100160.38
2022-07-29T01:38:46.346Z,100158.31
2022-07-29T01:41:20.554Z,100154.41
2022-07-29T01:43:59.262Z,100166.13
2022-07-29T01:46:35.972Z,100159.38
2022-07-29T01:49:21.147Z,100157.50
2022-07-29T01:52:04.391Z,100154.34
2022-07-29T01:54:43.922Z,100156.38
2022-07-29T01:57:20.841Z,100151.00
2022-07-29T01:59:49.534Z,100146.09
2022-07-29T02:02:19.310Z,100157.13
2022-07-29T02:04:49.644Z,100154.13
2022-07-29T02:07:23.431Z,100158.59
2022-07-29T02:09:52.941Z,100158.69
2022-07-29T02:12:22.708Z,100149.63
2022-07-29T02:14:54.940Z,100154.44
2022-07-29T02:17:40.198Z,100160.00
2022-07-29T02:20:09.376Z,100163.22
2022-07-29T02:22:40.276Z,100166.25
2022-07-29T02:25:13.797Z,100171.59
2022-07-29T02:27:43.607Z,100168.91
2022-07-29T02:30:13.276Z,100164.31
2022-07-29T02:32:42.677Z,100176.22
2022-07-29T02:35:13.259Z,100168.44
2022-07-29T02:37:42.060Z,100173.88
2022-07-29T02:40:12.762Z,100169.28
2022-07-29T02:42:44.990Z,100167.38
2022-07-29T02:45:12.266Z,100173.81
2022-07-29T02:47:48.713Z,100176.50
2022-07-29T02:50:22.576Z,100169.94
2022-07-29T02:53:10.229Z,100178.31
2022-07-29T02:55:59.999Z,100173.00
2022-07-29T02:58:47.826Z,100181.47
2022-07-29T03:01:21.863Z,100178.00
2022-07-29T03:03:52.686Z,100180.47
2022-07-29T03:06:31.128Z,100178.97
2022-07-29T03:09:12.828Z,100167.84
2022-07-29T03:11:49.925Z,100165.94
2022-07-29T03:14:21.729Z,100156.53
2022-07-29T03:16:50.369Z,100164.63
2022-07-29T03:19:18.924Z,100174.19
2022-07-29T03:21:46.113Z,100175.13
2022-07-29T03:24:29.632Z,100169.38
2022-07-29T03:26:57.680Z,100163.69
2022-07-29T03:29:25.761Z,100170.44
2022-07-29T03:32:07.933Z,100165.06
2022-07-29T03:34:37.629Z,100169.38
2022-07-29T03:37:06.907Z,100165.28
2022-07-29T03:39:41.530Z,100160.59
2022-07-29T03:42:12.762Z,100161.13
2022-07-29T03:44:44.080Z,100173.81
2022-07-29T03:47:14.924Z,100174.69
2022-07-29T03:49:45.331Z,100180.78
2022-07-29T03:52:12.317Z,100184.09
2022-07-29T03:54:40.171Z,100180.13
2022-07-29T03:57:09.426Z,100180.75
2022-07-29T03:59:37.565Z,100177.47
2022-07-29T04:02:06.664Z,100177.88
2022-07-29T04:04:35.734Z,100185.78
2022-07-29T04:07:03.044Z,100190.34
2022-07-29T04:09:30.269Z,100188.44
2022-07-29T04:12:03.269Z,100195.69
2022-07-29T04:14:35.709Z,100193.78
2022-07-29T04:17:05.082Z,100195.06
2022-07-29T04:19:33.223Z,100192.63
2022-07-29T04:22:01.682Z,100199.13
2022-07-29T04:24:28.855Z,100198.19
2022-07-29T04:26:56.517Z,100204.78
2022-07-29T04:29:23.457Z,100203.59
2022-07-29T04:31:50.469Z,100207.41
2022-07-29T04:34:17.834Z,100204.09
2022-07-29T04:36:45.316Z,100202.09
2022-07-29T04:39:12.428Z,100197.81
2022-07-29T04:41:39.379Z,100199.09
2022-07-29T04:44:06.913Z,100199.75
2022-07-29T04:46:35.705Z,100199.22
2022-07-29T04:49:04.331Z,100199.00
2022-07-29T04:51:31.632Z,100200.91
2022-07-29T04:53:58.666Z,100205.28
2022-07-29T04:56:25.660Z,100209.69
2022-07-29T04:58:53.330Z,100221.19
2022-07-29T05:01:20.867Z,100217.72
2022-07-29T05:03:47.869Z,100214.00
2022-07-29T05:06:14.799Z,100212.94
2022-07-29T05:08:42.089Z,100218.69
2022-07-29T05:11:11.439Z,100219.34
2022-07-29T05:13:45.790Z,100221.19
2022-07-29T05:16:14.854Z,100216.72
2022-07-29T05:18:43.054Z,100220.88
2022-07-29T05:21:10.179Z,100226.97
2022-07-29T05:23:37.153Z,100222.16
2022-07-29T05:26:04.251Z,100221.31
2022-07-29T05:28:35.958Z,100214.03
2022-07-29T05:31:03.232Z,100216.06
2022-07-29T05:33:35.372Z,100222.44
2022-07-29T05:36:08.183Z,100226.16
2022-07-29T05:38:36.940Z,100223.91
2022-07-29T05:41:05.114Z,100223.59
2022-07-29T05:43:32.146Z,100227.97
2022-07-29T05:45:59.609Z,100228.94
2022-07-29T05:48:26.828Z,100238.88
2022-07-29T05:50:53.858Z,100234.16
2022-07-29T05:53:21.282Z,100240.44
2022-07-29T05:55:52.592Z,100235.97
2022-07-29T05:58:19.702Z,100236.25
2022-07-29T06:00:46.809Z,100239.06
2022-07-29T06:03:13.797Z,100252.63
2022-07-29T06:05:40.883Z,100256.78
2022-07-29T06:08:08.503Z,100242.78
2022-07-29T06:10:38.791Z,100245.16
2022-07-29T06:13:06.225Z,100255.31
2022-07-29T06:15:34.300Z,100249.28
2022-07-29T06:18:02.448Z,100258.56
2022-07-29T06:20:31.838Z,100248.00
2022-07-29T06:22:59.746Z,100245.47
2022-07-29T06:25:30.008Z,100246.84
2022-07-29T06:27:57.877Z,100251.81
2022-07-29T06:30:25.024Z,100251.00
2022-07-29T06:32:52.139Z,100257.91
2022-07-29T06:35:41.822Z,100262.28
2022-07-29T06:38:25.092Z,100258.22
2022-07-29T06:41:02.806Z,100270.41
2022-07-29T06:43:51.081Z,100266.81
2022-07-29T06:46:21.808Z,100270.72
2022-07-29T06:48:49.868Z,100272.75
2022-07-29T06:51:22.977Z,100279.63
2022-07-29T06:53:58.169Z,100280.75
2022-07-29T06:56:27.445Z,100283.44
2022-07-29T06:58:54.448Z,100270.78
2022-07-29T07:01:21.804Z,100280.50
2022-07-29T07:03:48.894Z,100278.22
2022-07-29T07:06:16.016Z,100277.03
2022-07-29T07:08:43.053Z,100282.91
2022-07-29T07:11:10.309Z,100281.78
2022-07-29T07:13:37.319Z,100281.44
2022-07-29T07:16:05.439Z,100292.50
2022-07-29T07:18:32.900Z,100290.91
2022-07-29T07:20:59.897Z,100294.31
2022-07-29T07:23:26.995Z,100288.94
2022-07-29T07:25:54.166Z,100296.16
2022-07-29T07:28:24.551Z,100290.00
2022-07-29T07:30:53.008Z,100300.69
2022-07-29T07:33:20.293Z,100299.38
2022-07-29T07:35:47.923Z,100296.03
2022-07-29T07:38:14.958Z,100302.22
2022-07-29T07:40:45.077Z,100292.19
2022-07-29T07:43:11.997Z,100294.41
2022-07-29T07:48:06.334Z,100288.69
2022-07-29T07:50:33.419Z,100285.78
2022-07-29T07:53:02.931Z,100286.75
2022-07-29T07:55:42.454Z,100296.50
2022-07-29T07:58:17.242Z,100297.72
2022-07-29T08:00:44.576Z,100299.78
2022-07-29T08:03:17.015Z,100304.06
2022-07-29T08:05:44.968Z,100297.81
2022-07-29T08:08:11.981Z,100288.25
2022-07-29T08:10:54.548Z,100288.00
2022-07-29T08:13:24.167Z,100291.72
2022-07-29T08:16:12.571Z,100289.31
2022-07-29T08:18:41.845Z,100292.78
2022-07-29T08:21:09.232Z,100285.31
2022-07-29T08:23:46.083Z,100290.47
2022-07-29T08:26:16.217Z,100292.44
2022-07-29T08:28:51.219Z,100301.44
2022-07-29T08:31:19.073Z,100310.72
2022-07-29T08:33:46.201Z,100306.47
2022-07-29T08:36:14.150Z,100313.78
2022-07-29T08:38:41.205Z,100306.59
2022-07-29T08:41:08.385Z,100311.25
2022-07-29T08:43:38.241Z,100305.63
2022-07-29T08:46:05.531Z,100306.94
2022-07-29T08:48:33.429Z,100302.84
2022-07-29T08:51:01.812Z,100307.09
2022-07-29T08:53:30.598Z,100305.94
2022-07-29T08:55:59.294Z,100304.38
2022-07-29T08:58:31.758Z,100301.88
2022-07-29T09:01:03.369Z,100298.16
2022-07-29T09:03:35.573Z,100299.81
2022-07-29T09:06:04.139Z,100298.22
2022-07-29T09:08:33.725Z,100297.47
2022-07-29T09:11:05.579Z,100302.53
2022-07-29T09:13:32.801Z,100302.75
2022-07-29T09:15:59.968Z,100294.56
2022-07-29T09:18:45.523Z,100309.16
2022-07-29T09:21:35.484Z,100305.78
2022-07-29T09:24:14.278Z,100307.69
2022-07-29T09:26:43.931Z,100303.00
2022-07-29T09:29:14.979Z,100305.88
2022-07-29T09:31:48.112Z,100300.63
2022-07-29T09:34:21.930Z,100296.97
2022-07-29T09:36:51.729Z,100305.66
2022-07-29T09:39:33.081Z,100309.22
2022-07-29T09:42:04.824Z,100303.38
2022-07-29T09:44:50.103Z,100299.25
2022-07-29T09:47:19.468Z,100304.16
2022-07-29T09:50:00.905Z,100292.59
2022-07-29T09:52:30.161Z,100294.75
2022-07-29T09:55:09.161Z,100301.88
2022-07-29T09:57:36.978Z,100308.09
2022-07-29T10:00:19.831Z,100300.75
2022-07-29T10:02:48.678Z,100303.16
2022-07-29T10:05:18.830Z,100296.63
2022-07-29T10:07:53.724Z,100289.34
2022-07-29T10:10:30.583Z,100297.47
2022-07-29T10:13:08.874Z,100291.78
2022-07-29T10:15:41.795Z,100293.19
2022-07-29T10:18:10.536Z,100285.38
2022-07-29T10:20:38.636Z,100293.78
2022-07-29T10:23:06.119Z,100285.38
2022-07-29T10:25:33.650Z,100289.47
2022-07-29T10:28:00.964Z,100297.03
2022-07-29T10:30:28.456Z,100288.75
2022-07-29T10:33:30.917Z,100283.41
2022-07-29T10:36:20.339Z,100280.34
2022-07-29T10:39:26.897Z,100277.13
2022-07-29T10:42:33.437Z,100270.50
2022-07-29T10:45:04.368Z,100276.94
2022-07-29T10:47:32.340Z,100280.66
2022-07-29T10:50:05.844Z,100269.59
2022-07-29T10:52:54.541Z,100271.09
2022-07-29T10:55:49.532Z,100266.88
2022-07-29T10:58:24.183Z,100265.03
2022-07-29T11:00:54.097Z,100258.97
2022-07-29T11:03:50.711Z,100265.53
2022-07-29T11:06:26.647Z,100258.50
2022-07-29T11:09:27.347Z,100259.03
2022-07-29T11:12:25.256Z,100252.44
2022-07-29T11:14:56.792Z,100248.06
2022-07-29T11:17:25.299Z,100244.47
2022-07-29T11:19:52.682Z,100228.56
2022-07-29T11:22:36.875Z,100244.88
2022-07-29T11:25:19.382Z,100235.13
2022-07-29T11:28:23.127Z,100247.31
2022-07-29T11:30:54.908Z,100237.66
2022-07-29T11:36:28.054Z,100240.09
2022-07-29T11:39:36.371Z,100222.19
2022-07-29T11:42:28.266Z,100228.16
2022-07-29T11:45:42.624Z,100236.97
2022-07-29T11:48:31.468Z,100235.06
2022-07-29T11:51:00.597Z,100230.06
2022-07-29T11:53:29.111Z,100231.00
2022-07-29T11:56:01.431Z,100228.22
2022-07-29T11:58:30.114Z,100224.88
2022-07-29T12:00:58.548Z,100220.47
2022-07-29T12:03:33.516Z,100223.19
2022-07-29T12:06:14.978Z,100220.25
2022-07-29T12:07:01.471Z,100244.44
2022-07-29T12:08:43.967Z,100222.22
2022-07-29T12:11:22.855Z,100222.16
2022-07-29T12:13:52.362Z,100222.72
2022-07-29T12:16:29.168Z,100210.75
2022-07-29T12:19:03.639Z,100216.34
2022-07-29T12:21:56.580Z,100223.22
2022-07-29T12:24:26.686Z,100222.22
2022-07-29T12:27:02.579Z,100224.53
2022-07-29T12:29:33.820Z,100233.25
2022-07-29T12:32:06.978Z,100233.38
2022-07-29T12:34:42.429Z,100220.81
2022-07-29T12:37:11.120Z,100226.94
2022-07-29T12:39:38.691Z,100224.66
2022-07-29T12:42:18.358Z,100217.09
2022-07-29T12:44:51.178Z,100217.69
2022-07-29T12:47:19.723Z,100220.75
2022-07-29T12:49:47.884Z,100222.28
2022-07-29T12:52:31.193Z,100217.53
2022-07-29T12:54:58.791Z,100224.13
2022-07-29T12:57:26.840Z,100212.94
2022-07-29T13:00:13.905Z,100215.72
2022-07-29T13:02:43.554Z,100219.28
2022-07-29T13:05:13.537Z,100205.91
2022-07-29T13:07:55.167Z,100215.16
2022-07-29T13:10:25.742Z,100216.34
2022-07-29T13:13:16.778Z,100211.09
2022-07-29T13:16:05.700Z,100220.13
2022-07-29T13:18:38.757Z,100224.13
2022-07-29T13:21:16.686Z,100222.00
2022-07-29T13:23:45.946Z,100235.22
2022-07-29T13:26:13.429Z,100231.97
2022-07-29T13:28:41.000Z,100226.91
2022-07-29T13:31:11.854Z,100230.19
2022-07-29T13:33:38.971Z,100229.81
2022-07-29T13:36:06.375Z,100227.63
2022-07-29T13:38:33.333Z,100225.69
2022-07-29T13:41:00.445Z,100229.56
2022-07-29T13:43:27.515Z,100226.66
2022-07-29T13:45:54.921Z,100218.88
2022-07-29T13:48:21.955Z,100223.28
2022-07-29T13:50:49.242Z,100212.25
2022-07-29T13:53:17.818Z,100211.16
2022-07-29T13:55:45.409Z,100216.16
2022-07-29T13:58:12.549Z,100221.91
2022-07-29T14:00:39.735Z,100214.03
2022-07-29T14:03:07.402Z,100215.72
2022-07-29T14:05:34.470Z,100213.41
2022-07-29T14:08:01.466Z,100207.56
2022-07-29T14:10:28.523Z,100204.22
2022-07-29T14:12:55.571Z,100210.50
2022-07-29T14:15:22.793Z,100207.47
2022-07-29T14:17:49.970Z,100204.13
2022-07-29T14:20:17.183Z,100211.28
2022-07-29T14:22:45.303Z,100214.28
2022-07-29T14:25:15.055Z,100210.97
2022-07-29T14:27:43.809Z,100215.63
2022-07-29T14:30:11.935Z,100221.03
2022-07-29T14:32:38.897Z,100208.69
2022-07-29T14:35:07.034Z,100211.16
2022-07-29T14:37:39.767Z,100200.78
2022-07-29T14:40:09.944Z,100199.25
2022-07-29T14:42:38.010Z,100210.13
2022-07-29T14:45:10.038Z,100208.75
2022-07-29T14:47:38.588Z,100206.81
2022-07-29T14:50:06.587Z,100202.84
2022-07-29T14:52:33.684Z,100197.63
2022-07-29T14:55:00.719Z,100209.75
2022-07-29T14:57:28.022Z,100193.22
2022-07-29T14:59:55.144Z,100211.31
2022-07-29T15:02:23.737Z,100205.03
2022-07-29T15:04:55.174Z,100214.50
2022-07-29T15:07:22.283Z,100206.03
2022-07-29T15:09:50.125Z,100201.09
2022-07-29T15:12:17.478Z,100205.03
2022-07-29T15:14:44.544Z,100207.28
2022-07-29T15:17:11.612Z,100203.47
2022-07-29T15:19:38.674Z,100214.72
2022-07-29T15:22:11.855Z,100204.97
2022-07-29T15:24:39.269Z,100205.03
2022-07-29T15:27:06.447Z,100226.34
2022-07-29T15:29:33.911Z,100199.31
2022-07-29T15:32:01.298Z,100205.97
2022-07-29T15:34:28.602Z,100208.03
2022-07-29T15:36:55.613Z,100201.59
2022-07-29T15:39:23.233Z,100214.53
2022-07-29T15:41:51.314Z,100205.88
2022-07-29T15:44:19.387Z,100203.59
2022-07-29T15:47:04.315Z,100212.63
2022-07-29T15:49:47.860Z,100211.13
2022-07-29T15:52:25.115Z,100204.38
2022-07-29T15:54:57.950Z,100203.75
2022-07-29T15:57:25.348Z,100203.38
2022-07-29T15:59:52.812Z,100199.34
2022-07-29T16:02:20.035Z,100202.88
2022-07-29T16:04:47.434Z,100199.63
2022-07-29T16:07:15.445Z,100191.44
2022-07-29T16:09:43.868Z,100204.28
2022-07-29T16:12:15.435Z,100199.13
2022-07-29T16:14:44.447Z,100196.34
2022-07-29T16:17:15.026Z,100198.03
2022-07-29T16:19:43.932Z,100192.59
2022-07-29T16:22:11.615Z,100189.94
2022-07-29T16:24:39.264Z,100187.00
2022-07-29T16:27:06.696Z,100189.34
2022-07-29T16:29:33.971Z,100184.47
2022-07-29T16:32:01.410Z,100177.03
2022-07-29T16:34:28.597Z,100186.41
2022-07-29T16:36:55.564Z,100184.25
2022-07-29T16:39:22.570Z,100171.53
2022-07-29T16:41:49.765Z,100181.63
2022-07-29T16:44:16.772Z,100178.59
2022-07-29T16:46:45.798Z,100171.97
2022-07-29T16:49:19.021Z,100181.22
2022-07-29T16:51:47.937Z,100172.69
2022-07-29T16:54:15.372Z,100176.22
2022-07-29T16:56:42.571Z,100174.94
2022-07-29T16:59:10.678Z,100175.94
2022-07-29T17:01:38.052Z,100173.22
2022-07-29T17:04:08.223Z,100176.16
2022-07-29T17:06:40.279Z,100171.41
2022-07-29T17:09:11.547Z,100174.06
2022-07-29T17:11:52.856Z,100167.00
2022-07-29T17:14:27.290Z,100174.34
2022-07-29T17:17:01.047Z,100169.47
2022-07-29T17:19:35.723Z,100170.94
2022-07-29T17:22:12.905Z,100176.50
2022-07-29T17:24:43.306Z,100174.31
2022-07-29T17:27:11.032Z,100177.59
2022-07-29T17:29:39.515Z,100185.78
2022-07-29T17:32:08.143Z,100178.91
2022-07-29T17:34:42.827Z,100180.16
2022-07-29T17:37:12.222Z,100177.00
2022-07-29T17:39:41.703Z,100182.09
2022-07-29T17:42:14.244Z,100191.53
2022-07-29T17:44:41.599Z,100182.44
2022-07-29T17:47:15.828Z,100177.19
2022-07-29T17:49:45.197Z,100177.38
2022-07-29T17:52:12.299Z,100183.78
2022-07-29T17:54:39.367Z,100181.47
2022-07-29T17:57:06.365Z,100188.72
2022-07-29T17:59:33.386Z,100182.25
2022-07-29T18:02:00.530Z,100187.22
2022-07-29T18:04:28.670Z,100181.19
2022-07-29T18:06:55.944Z,100189.56
2022-07-29T18:09:23.207Z,100184.38
2022-07-29T18:11:50.241Z,100194.91
2022-07-29T18:14:17.285Z,100197.19
2022-07-29T18:16:44.496Z,100200.38
2022-07-29T18:19:11.607Z,100204.94
2022-07-29T18:21:51.863Z,100209.41
2022-07-29T18:24:25.541Z,100212.97
2022-07-29T18:26:53.675Z,100205.50
2022-07-29T18:29:20.822Z,100207.41
2022-07-29T18:31:47.790Z,100214.19
2022-07-29T18:34:14.955Z,100210.44
2022-07-29T18:36:42.100Z,100221.50
2022-07-29T18:39:09.104Z,100219.59
2022-07-29T18:41:54.119Z,100215.16
2022-07-29T18:44:22.577Z,100217.66
2022-07-29T18:46:51.855Z,100221.97
2022-07-29T18:49:19.424Z,100228.38
2022-07-29T18:51:46.601Z,100221.75
2022-07-29T18:54:13.838Z,100222.34
2022-07-29T18:56:41.116Z,100226.00
2022-07-29T18:59:08.178Z,100229.59
2022-07-29T19:01:35.370Z,100228.22
2022-07-29T19:04:02.542Z,100227.03
2022-07-29T19:06:29.896Z,100228.28
2022-07-29T19:08:56.919Z,100233.63
2022-07-29T19:11:23.958Z,100236.41
2022-07-29T19:13:51.059Z,100236.25
2022-07-29T19:16:18.489Z,100243.22
2022-07-29T19:18:47.303Z,100254.53
2022-07-29T19:21:14.339Z,100253.84
2022-07-29T19:24:04.256Z,100262.34
2022-07-29T19:26:29.598Z,100267.69
2022-07-29T19:28:56.580Z,100276.69
2022-07-29T19:31:23.769Z,100286.63
2022-07-29T19:33:50.984Z,100291.59
2022-07-29T19:36:18.064Z,100291.28
2022-07-29T19:38:45.057Z,100304.88
2022-07-29T19:41:13.180Z,100314.19
2022-07-29T19:43:51.271Z,100321.28
2022-07-29T19:46:23.597Z,100312.16
2022-07-29T19:48:51.455Z,100301.25
2022-07-29T19:51:18.650Z,100305.50
2022-07-29T19:53:45.672Z,100301.69
2022-07-29T19:56:12.664Z,100306.63
2022-07-29T19:58:40.763Z,100303.91
2022-07-29T20:01:10.690Z,100307.84
2022-07-29T20:03:40.098Z,100314.41
2022-07-29T20:06:07.741Z,100313.56
2022-07-29T20:08:34.927Z,100309.56
2022-07-29T20:11:02.882Z,100313.97
2022-07-29T20:13:31.805Z,100320.97
2022-07-29T20:16:05.270Z,100321.84
2022-07-29T20:18:32.675Z,100322.44
2022-07-29T20:21:01.273Z,100323.84
2022-07-29T20:23:28.362Z,100324.72
2022-07-29T20:26:00.852Z,100318.78
2022-07-29T20:28:27.961Z,100326.44
2022-07-29T20:30:55.074Z,100322.03
2022-07-29T20:33:22.186Z,100327.84
2022-07-29T20:35:49.206Z,100329.00
2022-07-29T20:38:18.301Z,100333.69
2022-07-29T20:40:45.853Z,100333.81
2022-07-29T20:43:12.911Z,100335.38
2022-07-29T20:45:39.987Z,100335.53
2022-07-29T20:48:08.156Z,100330.41
2022-07-29T20:50:35.501Z,100333.81
2022-07-29T20:53:02.581Z,100340.19
2022-07-29T20:55:29.638Z,100345.25
2022-07-29T20:57:56.570Z,100350.88
2022-07-29T21:00:23.600Z,100357.81
2022-07-29T21:02:50.771Z,100361.63
2022-07-29T21:05:17.765Z,100378.91
2022-07-29T21:07:44.758Z,100385.16
2022-07-29T21:10:12.197Z,100385.41
2022-07-29T21:12:39.174Z,100397.56
2022-07-29T21:15:06.889Z,100399.78
2022-07-29T21:17:36.043Z,100404.56
2022-07-29T21:20:06.668Z,100401.84
2022-07-29T21:22:33.898Z,100403.03
2022-07-29T21:25:01.476Z,100404.97
2022-07-29T21:27:47.102Z,100410.38
2022-07-29T21:30:14.171Z,100408.91
2022-07-29T21:32:41.169Z,100410.28
2022-07-29T21:35:18.252Z,100418.03
2022-07-29T21:37:54.458Z,100413.53
2022-07-29T21:40:21.639Z,100419.41
2022-07-29T21:42:48.648Z,100426.03
2022-07-29T21:45:16.849Z,100422.38
2022-07-29T21:47:43.820Z,100424.34
2022-07-29T21:50:10.840Z,100429.25
2022-07-29T21:52:38.915Z,100439.28
2022-07-29T21:55:07.829Z,100439.75
2022-07-29T21:57:37.760Z,100436.84
2022-07-29T22:00:08.362Z,100447.28
2022-07-29T22:02:39.630Z,100449.72
2022-07-29T22:05:06.959Z,100453.44
2022-07-29T22:07:56.261Z,100447.81
2022-07-29T22:10:21.107Z,100458.91
2022-07-29T22:12:52.258Z,100461.34
2022-07-29T22:15:19.783Z,100464.44
2022-07-29T22:17:47.071Z,100452.28
2022-07-29T22:20:14.235Z,100454.34
2022-07-29T22:22:41.866Z,100454.25
2022-07-29T22:25:10.022Z,100453.97
2022-07-29T22:27:37.965Z,100456.28
2022-07-29T22:30:06.831Z,100464.00
2022-07-29T22:32:34.428Z,100464.47
2022-07-29T22:35:01.603Z,100470.09
2022-07-29T22:37:28.711Z,100467.38
2022-07-29T22:39:56.026Z,100471.78
2022-07-29T22:42:23.202Z,100472.09
2022-07-29T22:44:50.294Z,100472.97
2022-07-29T22:47:17.317Z,100472.81
2022-07-29T22:49:44.559Z,100480.56
2022-07-29T22:52:11.761Z,100488.00
2022-07-29T22:54:41.507Z,100481.50
2022-07-29T22:57:08.547Z,100482.09
2022-07-29T22:59:35.630Z,100486.00
2022-07-29T23:02:02.611Z,100483.94
2022-07-29T23:04:29.640Z,100486.09
2022-07-29T23:06:57.056Z,100491.03
2022-07-29T23:09:24.168Z,100492.44
2022-07-29T23:11:51.148Z,100498.38
2022-07-29T23:14:18.132Z,100498.56
2022-07-29T23:16:45.152Z,100497.22
2022-07-29T23:19:12.243Z,100505.81
2022-07-29T23:21:39.321Z,100500.31
2022-07-29T23:24:06.534Z,100506.31
2022-07-29T23:26:33.615Z,100495.94
2022-07-29T23:29:00.610Z,100507.06
2022-07-29T23:31:27.642Z,100500.38
2022-07-29T23:33:54.585Z,100515.25
2022-07-29T23:36:21.709Z,100514.66
2022-07-29T23:38:49.144Z,100518.72
2022-07-29T23:41:16.311Z,100519.56
2022-07-29T23:43:43.393Z,100513.28
2022-07-29T23:46:10.379Z,100513.69
2022-07-29T23:48:37.494Z,100513.69
2022-07-29T23:51:04.472Z,100516.28
2022-07-29T23:53:31.523Z,100514.13
2022-07-29T23:55:58.522Z,100516.59
2022-07-29T23:58:25.522Z,100507.72
